Roosevelt Field, New York
Current Conditions -  °F | °C
As of 3:51 PM on Tuesday 21 Oct 2014 (Local Time) from KJFK Reporting Station
Broken Clouds Broken Clouds  
Wind Chill: 63°   Ceiling: 7500
Heat Index: 63°   Visibility: 10mi
Dew Point: 57°   Wind: 8mph
Humidity: 81%   Direction: 100°E
Pressure: 29.85"   Gusts: NA
Location:  40.7256°N, 73.6474°W
Report Text: KJFK 211951Z 10007KT 10SM FEW013 SCT030 BKN075 BKN130 BKN240 17/14 A2985 RMK AO2 RAE07 SLP106 P0000 T01720139
Loading
Personal Weather Stations






























Interactive Weather Map
Tropical Storm Tracking
New forecast layout! Learn more

10-Day Weather Forecast

Advertisements
Track Severe Weather on mobile